This is the latest recevied weather packets stored in our database for station/object KD9IXX-13. If no packets are shown the sender has not sent any weather packets the latest 10 day(s).
| Time | Temp. | Humidity | Pressure | Rain* | Wind** | Luminosity | Snow |
|---|---|---|---|---|---|---|---|
| 1787760002 | 26.67° C | 78% | 1015 hPa | 0 mm | - | 634 W/m² | - |
| 1787758203 | 25.56° C | 81% | 1014.7 hPa | 0 mm | - | 634 W/m² | - |
| 1787757902 | 26.11° C | 81% | 1014.9 hPa | 0 mm | - | 608 W/m² | - |
| 1787757302 | 25.56° C | 81% | 1014.7 hPa | 0 mm | - | 624 W/m² | - |
| 1787757002 | 25° C | 82% | 1014.8 hPa | 0 mm | - | 637 W/m² | - |
| 1787756702 | 25.56° C | 80% | 1014.9 hPa | 0 mm | - | 615 W/m² | - |
| 1787756102 | 25° C | 80% | 1014.7 hPa | 0 mm | - | 580 W/m² | - |
| 1787755802 | 24.44° C | 80% | 1015 hPa | 0 mm | - | 564 W/m² | - |
| 1787755502 | 24.44° C | 80% | 1014.7 hPa | 0 mm | - | 551 W/m² | - |
| 1787755202 | 23.89° C | 81% | 1014.8 hPa | 0 mm | - | 522 W/m² | - |
| 1787754902 | 23.33° C | 80% | 1014.9 hPa | 0 mm | - | 540 W/m² | - |
| 1787754302 | 23.33° C | 83% | 1015 hPa | 0 mm | - | 225 W/m² | - |
| 1787754001 | 23.33° C | 80% | 1015 hPa | 0 mm | - | 330 W/m² | - |
| 1787752502 | 22.78° C | 81% | 1014.9 hPa | 0 mm | - | 367 W/m² | - |
| 1787752202 | 22.22° C | 81% | 1015 hPa | 0 mm | - | 337 W/m² | - |
| 1787751602 | 22.22° C | 83% | 1015.1 hPa | 0 mm | - | 294 W/m² | - |
| 1787751001 | 21.67° C | 84% | 1015.1 hPa | 0 mm | - | 271 W/m² | - |
| 1787750402 | 21.11° C | 85% | 1015.3 hPa | 0 mm | - | 235 W/m² | - |
| 1787750102 | 21.11° C | 86% | 1015.1 hPa | 0 mm | - | 219 W/m² | - |
| 1787749502 | 20.56° C | 87% | 1015.3 hPa | 0 mm | - | 160 W/m² | - |
| 1787748902 | 20° C | 88% | 1015.6 hPa | 0 mm | - | 119 W/m² | - |
| 1787747402 | 18.89° C | 92% | 1016 hPa | 0 mm | - | 76 W/m² | - |
| 1787746801 | 18.89° C | 92% | 1015.8 hPa | 0 mm | - | 62 W/m² | - |
| 1787746502 | 18.89° C | 92% | 1015.8 hPa | 0 mm | - | 56 W/m² | - |
| 1787746202 | 18.89° C | 92% | 1015.7 hPa | 0 mm | - | 48 W/m² | - |
* Rain latest hour (hover to see other rain measurements)
** Current wind speed in m/s (hover to see current wind gust speed)